sensor_id;sensor_type;location;lat;lon;timestamp;P1;durP1;ratioP1;P2;durP2;ratioP2
34984;SDS011;21190;58.750;17.004;2023-05-21T00:01:54;4.82;;;2.05;;
34984;SDS011;21190;58.750;17.004;2023-05-21T00:04:22;3.67;;;1.77;;
34984;SDS011;21190;58.750;17.004;2023-05-21T00:06:50;4.70;;;2.05;;
34984;SDS011;21190;58.750;17.004;2023-05-21T00:09:17;2.97;;;1.70;;
34984;SDS011;21190;58.750;17.004;2023-05-21T00:11:44;3.08;;;2.40;;
34984;SDS011;21190;58.750;17.004;2023-05-21T00:14:11;4.68;;;2.38;;
34984;SDS011;21190;58.750;17.004;2023-05-21T00:16:38;4.63;;;2.30;;
34984;SDS011;21190;58.750;17.004;2023-05-21T00:19:06;3.53;;;1.85;;
34984;SDS011;21190;58.750;17.004;2023-05-21T00:21:33;3.20;;;1.95;;
34984;SDS011;21190;58.750;17.004;2023-05-21T00:24:00;4.93;;;1.90;;
34984;SDS011;21190;58.750;17.004;2023-05-21T00:26:27;6.00;;;2.33;;
34984;SDS011;21190;58.750;17.004;2023-05-21T00:28:54;4.53;;;2.05;;
34984;SDS011;21190;58.750;17.004;2023-05-21T00:31:22;3.13;;;2.10;;
34984;SDS011;21190;58.750;17.004;2023-05-21T00:33:49;5.72;;;2.20;;
34984;SDS011;21190;58.750;17.004;2023-05-21T00:36:16;5.90;;;1.63;;
34984;SDS011;21190;58.750;17.004;2023-05-21T00:38:43;3.75;;;1.98;;
34984;SDS011;21190;58.750;17.004;2023-05-21T00:41:11;3.10;;;1.80;;
34984;SDS011;21190;58.750;17.004;2023-05-21T00:43:38;4.55;;;1.85;;
34984;SDS011;21190;58.750;17.004;2023-05-21T00:46:07;3.33;;;1.85;;
34984;SDS011;21190;58.750;17.004;2023-05-21T00:48:37;6.05;;;2.30;;
34984;SDS011;21190;58.750;17.004;2023-05-21T00:51:05;5.75;;;2.20;;
34984;SDS011;21190;58.750;17.004;2023-05-21T00:53:32;3.67;;;2.15;;
34984;SDS011;21190;58.750;17.004;2023-05-21T00:56:03;6.38;;;2.22;;
34984;SDS011;21190;58.750;17.004;2023-05-21T00:58:30;4.38;;;2.28;;
34984;SDS011;21190;58.750;17.004;2023-05-21T01:01:01;3.80;;;2.00;;
34984;SDS011;21190;58.750;17.004;2023-05-21T01:03:29;3.67;;;2.05;;
34984;SDS011;21190;58.750;17.004;2023-05-21T01:05:56;3.78;;;2.33;;
34984;SDS011;21190;58.750;17.004;2023-05-21T01:08:25;5.13;;;2.38;;
34984;SDS011;21190;58.750;17.004;2023-05-21T01:10:54;5.57;;;2.20;;
34984;SDS011;21190;58.750;17.004;2023-05-21T01:13:22;6.10;;;1.95;;
34984;SDS011;21190;58.750;17.004;2023-05-21T01:15:51;5.30;;;2.05;;
34984;SDS011;21190;58.750;17.004;2023-05-21T01:18:19;3.67;;;2.15;;
34984;SDS011;21190;58.750;17.004;2023-05-21T01:20:46;6.22;;;2.15;;
34984;SDS011;21190;58.750;17.004;2023-05-21T01:23:15;7.35;;;2.40;;
34984;SDS011;21190;58.750;17.004;2023-05-21T01:25:43;5.40;;;2.33;;
34984;SDS011;21190;58.750;17.004;2023-05-21T01:28:10;4.15;;;2.55;;
34984;SDS011;21190;58.750;17.004;2023-05-21T01:30:38;7.45;;;2.28;;
34984;SDS011;21190;58.750;17.004;2023-05-21T01:33:27;3.80;;;2.33;;
34984;SDS011;21190;58.750;17.004;2023-05-21T01:36:03;3.33;;;2.20;;
34984;SDS011;21190;58.750;17.004;2023-05-21T01:38:44;4.75;;;2.05;;
34984;SDS011;21190;58.750;17.004;2023-05-21T01:41:33;4.07;;;2.10;;
34984;SDS011;21190;58.750;17.004;2023-05-21T01:44:06;3.40;;;2.10;;
34984;SDS011;21190;58.750;17.004;2023-05-21T01:46:34;4.70;;;2.28;;
34984;SDS011;21190;58.750;17.004;2023-05-21T01:49:04;8.40;;;2.08;;
34984;SDS011;21190;58.750;17.004;2023-05-21T01:51:32;6.32;;;2.30;;
34984;SDS011;21190;58.750;17.004;2023-05-21T01:54:00;2.80;;;2.00;;
34984;SDS011;21190;58.750;17.004;2023-05-21T01:56:28;2.90;;;2.10;;
34984;SDS011;21190;58.750;17.004;2023-05-21T01:58:55;3.72;;;2.53;;
34984;SDS011;21190;58.750;17.004;2023-05-21T02:01:25;5.80;;;2.05;;
34984;SDS011;21190;58.750;17.004;2023-05-21T02:03:55;5.45;;;2.40;;
34984;SDS011;21190;58.750;17.004;2023-05-21T02:06:23;4.72;;;2.35;;
34984;SDS011;21190;58.750;17.004;2023-05-21T02:08:50;4.55;;;2.45;;
34984;SDS011;21190;58.750;17.004;2023-05-21T02:11:17;12.30;;;3.03;;
34984;SDS011;21190;58.750;17.004;2023-05-21T02:13:44;4.82;;;1.92;;
34984;SDS011;21190;58.750;17.004;2023-05-21T02:16:11;4.25;;;2.20;;
34984;SDS011;21190;58.750;17.004;2023-05-21T02:18:41;6.43;;;2.40;;
34984;SDS011;21190;58.750;17.004;2023-05-21T02:21:08;4.28;;;1.88;;
34984;SDS011;21190;58.750;17.004;2023-05-21T02:23:38;2.60;;;1.90;;
34984;SDS011;21190;58.750;17.004;2023-05-21T02:26:07;4.13;;;2.38;;
34984;SDS011;21190;58.750;17.004;2023-05-21T02:28:34;3.15;;;2.20;;
34984;SDS011;21190;58.750;17.004;2023-05-21T02:31:01;9.38;;;2.20;;
34984;SDS011;21190;58.750;17.004;2023-05-21T02:33:29;3.05;;;2.40;;
34984;SDS011;21190;58.750;17.004;2023-05-21T02:35:56;8.43;;;2.30;;
34984;SDS011;21190;58.750;17.004;2023-05-21T02:38:23;7.00;;;2.40;;
34984;SDS011;21190;58.750;17.004;2023-05-21T02:40:51;3.55;;;1.92;;
34984;SDS011;21190;58.750;17.004;2023-05-21T02:43:18;5.47;;;2.50;;
34984;SDS011;21190;58.750;17.004;2023-05-21T02:45:45;3.63;;;2.08;;
34984;SDS011;21190;58.750;17.004;2023-05-21T02:48:13;4.68;;;2.33;;
34984;SDS011;21190;58.750;17.004;2023-05-21T02:50:40;5.65;;;2.42;;
34984;SDS011;21190;58.750;17.004;2023-05-21T02:53:07;5.05;;;2.25;;
34984;SDS011;21190;58.750;17.004;2023-05-21T02:55:34;4.70;;;2.10;;
34984;SDS011;21190;58.750;17.004;2023-05-21T02:58:01;8.32;;;2.10;;
34984;SDS011;21190;58.750;17.004;2023-05-21T03:00:28;5.57;;;2.30;;
34984;SDS011;21190;58.750;17.004;2023-05-21T03:02:56;3.88;;;2.40;;
34984;SDS011;21190;58.750;17.004;2023-05-21T03:05:23;7.88;;;2.17;;
34984;SDS011;21190;58.750;17.004;2023-05-21T03:07:50;6.18;;;1.92;;
34984;SDS011;21190;58.750;17.004;2023-05-21T03:10:18;6.00;;;2.10;;
34984;SDS011;21190;58.750;17.004;2023-05-21T03:12:45;7.75;;;2.42;;
34984;SDS011;21190;58.750;17.004;2023-05-21T03:15:12;3.92;;;2.40;;
34984;SDS011;21190;58.750;17.004;2023-05-21T03:17:40;4.78;;;1.92;;
34984;SDS011;21190;58.750;17.004;2023-05-21T03:20:07;9.43;;;2.20;;
34984;SDS011;21190;58.750;17.004;2023-05-21T03:22:42;5.35;;;2.70;;
34984;SDS011;21190;58.750;17.004;2023-05-21T03:25:10;6.25;;;2.42;;
34984;SDS011;21190;58.750;17.004;2023-05-21T03:27:38;6.60;;;2.38;;
34984;SDS011;21190;58.750;17.004;2023-05-21T03:30:05;3.22;;;2.00;;
34984;SDS011;21190;58.750;17.004;2023-05-21T03:32:32;4.20;;;2.45;;
34984;SDS011;21190;58.750;17.004;2023-05-21T03:35:03;6.03;;;2.47;;
34984;SDS011;21190;58.750;17.004;2023-05-21T03:37:30;3.92;;;2.65;;
34984;SDS011;21190;58.750;17.004;2023-05-21T03:39:57;3.90;;;2.20;;
34984;SDS011;21190;58.750;17.004;2023-05-21T03:42:24;6.50;;;2.45;;
34984;SDS011;21190;58.750;17.004;2023-05-21T03:44:51;3.13;;;2.15;;
34984;SDS011;21190;58.750;17.004;2023-05-21T03:47:18;6.75;;;2.60;;
34984;SDS011;21190;58.750;17.004;2023-05-21T03:49:45;5.35;;;3.13;;
34984;SDS011;21190;58.750;17.004;2023-05-21T03:52:12;5.68;;;2.33;;
34984;SDS011;21190;58.750;17.004;2023-05-21T03:54:39;6.43;;;3.10;;
34984;SDS011;21190;58.750;17.004;2023-05-21T03:57:06;8.75;;;2.42;;
34984;SDS011;21190;58.750;17.004;2023-05-21T03:59:33;9.82;;;2.53;;
34984;SDS011;21190;58.750;17.004;2023-05-21T04:02:01;8.85;;;2.55;;
34984;SDS011;21190;58.750;17.004;2023-05-21T04:04:28;6.50;;;2.63;;
34984;SDS011;21190;58.750;17.004;2023-05-21T04:06:55;10.88;;;2.85;;
34984;SDS011;21190;58.750;17.004;2023-05-21T04:09:22;9.38;;;2.97;;
34984;SDS011;21190;58.750;17.004;2023-05-21T04:11:49;11.32;;;2.72;;
34984;SDS011;21190;58.750;17.004;2023-05-21T04:14:16;8.93;;;2.67;;
34984;SDS011;21190;58.750;17.004;2023-05-21T04:16:43;6.90;;;2.75;;
34984;SDS011;21190;58.750;17.004;2023-05-21T04:19:10;8.13;;;2.70;;
34984;SDS011;21190;58.750;17.004;2023-05-21T04:21:37;13.38;;;3.22;;
34984;SDS011;21190;58.750;17.004;2023-05-21T04:24:04;11.68;;;3.03;;
34984;SDS011;21190;58.750;17.004;2023-05-21T04:26:31;10.93;;;2.17;;
34984;SDS011;21190;58.750;17.004;2023-05-21T04:29:01;9.60;;;2.63;;
34984;SDS011;21190;58.750;17.004;2023-05-21T04:31:31;6.78;;;2.90;;
34984;SDS011;21190;58.750;17.004;2023-05-21T04:33:59;6.25;;;2.75;;
34984;SDS011;21190;58.750;17.004;2023-05-21T04:36:26;5.68;;;2.40;;
34984;SDS011;21190;58.750;17.004;2023-05-21T04:38:54;5.72;;;2.63;;
34984;SDS011;21190;58.750;17.004;2023-05-21T04:41:22;5.53;;;2.53;;
34984;SDS011;21190;58.750;17.004;2023-05-21T04:43:49;12.35;;;2.35;;
34984;SDS011;21190;58.750;17.004;2023-05-21T04:46:20;6.80;;;2.20;;
34984;SDS011;21190;58.750;17.004;2023-05-21T04:48:51;10.10;;;1.98;;
34984;SDS011;21190;58.750;17.004;2023-05-21T04:51:20;2.45;;;1.63;;
34984;SDS011;21190;58.750;17.004;2023-05-21T04:53:50;6.28;;;2.72;;
34984;SDS011;21190;58.750;17.004;2023-05-21T04:56:17;9.05;;;3.00;;
34984;SDS011;21190;58.750;17.004;2023-05-21T04:58:44;6.07;;;2.50;;
34984;SDS011;21190;58.750;17.004;2023-05-21T05:01:16;10.98;;;2.30;;
34984;SDS011;21190;58.750;17.004;2023-05-21T05:03:44;12.02;;;2.75;;
34984;SDS011;21190;58.750;17.004;2023-05-21T05:06:12;9.57;;;2.03;;
34984;SDS011;21190;58.750;17.004;2023-05-21T05:08:39;5.57;;;1.48;;
34984;SDS011;21190;58.750;17.004;2023-05-21T05:11:07;1.83;;;1.23;;
34984;SDS011;21190;58.750;17.004;2023-05-21T05:13:34;3.13;;;1.30;;
34984;SDS011;21190;58.750;17.004;2023-05-21T05:16:01;2.33;;;1.08;;
34984;SDS011;21190;58.750;17.004;2023-05-21T05:18:28;4.95;;;1.17;;
34984;SDS011;21190;58.750;17.004;2023-05-21T05:20:56;3.33;;;1.25;;
34984;SDS011;21190;58.750;17.004;2023-05-21T05:23:23;3.03;;;1.00;;
34984;SDS011;21190;58.750;17.004;2023-05-21T05:25:50;5.22;;;1.58;;
34984;SDS011;21190;58.750;17.004;2023-05-21T05:28:17;2.25;;;1.50;;
34984;SDS011;21190;58.750;17.004;2023-05-21T05:30:44;3.88;;;1.58;;
34984;SDS011;21190;58.750;17.004;2023-05-21T05:33:11;4.93;;;1.40;;
34984;SDS011;21190;58.750;17.004;2023-05-21T05:35:38;3.50;;;1.42;;
34984;SDS011;21190;58.750;17.004;2023-05-21T05:38:06;5.93;;;1.40;;
34984;SDS011;21190;58.750;17.004;2023-05-21T05:40:34;1.92;;;1.02;;
34984;SDS011;21190;58.750;17.004;2023-05-21T05:43:01;2.10;;;1.20;;
34984;SDS011;21190;58.750;17.004;2023-05-21T05:45:28;2.03;;;1.20;;
34984;SDS011;21190;58.750;17.004;2023-05-21T05:47:55;2.65;;;1.20;;
34984;SDS011;21190;58.750;17.004;2023-05-21T05:50:22;2.22;;;1.35;;
34984;SDS011;21190;58.750;17.004;2023-05-21T05:52:49;1.75;;;1.30;;
34984;SDS011;21190;58.750;17.004;2023-05-21T05:55:16;1.55;;;1.20;;
34984;SDS011;21190;58.750;17.004;2023-05-21T05:57:43;1.65;;;0.95;;
34984;SDS011;21190;58.750;17.004;2023-05-21T06:00:10;3.53;;;1.40;;
34984;SDS011;21190;58.750;17.004;2023-05-21T06:02:38;3.40;;;1.73;;
34984;SDS011;21190;58.750;17.004;2023-05-21T06:05:05;1.95;;;1.20;;
34984;SDS011;21190;58.750;17.004;2023-05-21T06:07:32;1.85;;;1.15;;
34984;SDS011;21190;58.750;17.004;2023-05-21T06:09:59;3.22;;;1.40;;
34984;SDS011;21190;58.750;17.004;2023-05-21T06:12:26;2.88;;;1.52;;
34984;SDS011;21190;58.750;17.004;2023-05-21T06:14:53;3.72;;;2.33;;
34984;SDS011;21190;58.750;17.004;2023-05-21T06:17:21;5.43;;;1.40;;
34984;SDS011;21190;58.750;17.004;2023-05-21T06:19:48;1.95;;;1.10;;
34984;SDS011;21190;58.750;17.004;2023-05-21T06:22:15;1.60;;;1.10;;
34984;SDS011;21190;58.750;17.004;2023-05-21T06:24:42;2.05;;;0.95;;
34984;SDS011;21190;58.750;17.004;2023-05-21T06:27:09;4.53;;;1.50;;
34984;SDS011;21190;58.750;17.004;2023-05-21T06:29:36;3.20;;;1.33;;
34984;SDS011;21190;58.750;17.004;2023-05-21T06:32:04;5.38;;;1.58;;
34984;SDS011;21190;58.750;17.004;2023-05-21T06:34:32;3.15;;;1.23;;
34984;SDS011;21190;58.750;17.004;2023-05-21T06:36:58;2.47;;;1.20;;
34984;SDS011;21190;58.750;17.004;2023-05-21T06:39:26;3.72;;;1.50;;
34984;SDS011;21190;58.750;17.004;2023-05-21T06:41:53;2.10;;;1.33;;
34984;SDS011;21190;58.750;17.004;2023-05-21T06:44:20;2.28;;;1.45;;
34984;SDS011;21190;58.750;17.004;2023-05-21T06:46:47;3.78;;;1.20;;
34984;SDS011;21190;58.750;17.004;2023-05-21T06:49:14;2.08;;;1.23;;
34984;SDS011;21190;58.750;17.004;2023-05-21T06:51:41;2.15;;;1.30;;
34984;SDS011;21190;58.750;17.004;2023-05-21T06:54:08;2.80;;;1.30;;
34984;SDS011;21190;58.750;17.004;2023-05-21T06:56:35;2.20;;;1.08;;
34984;SDS011;21190;58.750;17.004;2023-05-21T06:59:02;2.00;;;1.27;;
34984;SDS011;21190;58.750;17.004;2023-05-21T07:01:29;3.13;;;1.10;;
34984;SDS011;21190;58.750;17.004;2023-05-21T07:03:57;4.93;;;1.75;;
34984;SDS011;21190;58.750;17.004;2023-05-21T07:06:24;4.20;;;1.30;;
34984;SDS011;21190;58.750;17.004;2023-05-21T07:08:51;3.25;;;1.10;;
34984;SDS011;21190;58.750;17.004;2023-05-21T07:11:18;3.17;;;1.35;;
34984;SDS011;21190;58.750;17.004;2023-05-21T07:13:46;3.00;;;1.50;;
34984;SDS011;21190;58.750;17.004;2023-05-21T07:16:13;2.38;;;1.00;;
34984;SDS011;21190;58.750;17.004;2023-05-21T07:18:43;1.90;;;1.10;;
34984;SDS011;21190;58.750;17.004;2023-05-21T07:21:10;2.95;;;1.33;;
34984;SDS011;21190;58.750;17.004;2023-05-21T07:23:37;7.65;;;1.38;;
34984;SDS011;21190;58.750;17.004;2023-05-21T07:26:04;3.08;;;1.10;;
34984;SDS011;21190;58.750;17.004;2023-05-21T07:28:31;3.78;;;1.63;;
34984;SDS011;21190;58.750;17.004;2023-05-21T07:30:58;3.80;;;1.25;;
34984;SDS011;21190;58.750;17.004;2023-05-21T07:33:25;2.83;;;1.30;;
34984;SDS011;21190;58.750;17.004;2023-05-21T07:35:53;2.67;;;1.55;;
34984;SDS011;21190;58.750;17.004;2023-05-21T07:38:20;2.65;;;1.48;;
34984;SDS011;21190;58.750;17.004;2023-05-21T07:40:47;5.22;;;1.33;;
34984;SDS011;21190;58.750;17.004;2023-05-21T07:43:14;2.05;;;1.10;;
34984;SDS011;21190;58.750;17.004;2023-05-21T07:45:41;7.43;;;1.63;;
34984;SDS011;21190;58.750;17.004;2023-05-21T07:48:08;4.45;;;1.33;;
34984;SDS011;21190;58.750;17.004;2023-05-21T07:50:35;1.75;;;1.17;;
34984;SDS011;21190;58.750;17.004;2023-05-21T07:53:03;4.50;;;1.48;;
34984;SDS011;21190;58.750;17.004;2023-05-21T07:55:30;2.88;;;1.10;;
34984;SDS011;21190;58.750;17.004;2023-05-21T07:57:57;1.98;;;1.05;;
34984;SDS011;21190;58.750;17.004;2023-05-21T08:00:25;5.45;;;1.70;;
34984;SDS011;21190;58.750;17.004;2023-05-21T08:02:52;3.70;;;1.33;;
34984;SDS011;21190;58.750;17.004;2023-05-21T08:05:19;3.15;;;1.60;;
34984;SDS011;21190;58.750;17.004;2023-05-21T08:07:48;4.28;;;1.20;;
34984;SDS011;21190;58.750;17.004;2023-05-21T08:10:15;4.22;;;1.35;;
34984;SDS011;21190;58.750;17.004;2023-05-21T08:12:44;4.50;;;1.23;;
34984;SDS011;21190;58.750;17.004;2023-05-21T08:15:12;1.75;;;1.40;;
34984;SDS011;21190;58.750;17.004;2023-05-21T08:17:39;5.88;;;1.60;;
34984;SDS011;21190;58.750;17.004;2023-05-21T08:20:06;3.80;;;1.40;;
34984;SDS011;21190;58.750;17.004;2023-05-21T08:22:34;5.72;;;1.65;;
34984;SDS011;21190;58.750;17.004;2023-05-21T08:25:01;1.67;;;1.17;;
34984;SDS011;21190;58.750;17.004;2023-05-21T08:27:28;3.67;;;1.45;;
34984;SDS011;21190;58.750;17.004;2023-05-21T08:29:55;2.92;;;1.40;;
34984;SDS011;21190;58.750;17.004;2023-05-21T08:32:22;2.90;;;1.23;;
34984;SDS011;21190;58.750;17.004;2023-05-21T08:34:49;2.88;;;1.40;;
34984;SDS011;21190;58.750;17.004;2023-05-21T08:37:20;4.30;;;1.55;;
34984;SDS011;21190;58.750;17.004;2023-05-21T08:39:47;2.63;;;1.73;;
34984;SDS011;21190;58.750;17.004;2023-05-21T08:42:17;2.88;;;1.10;;
34984;SDS011;21190;58.750;17.004;2023-05-21T08:45:07;2.72;;;1.13;;
34984;SDS011;21190;58.750;17.004;2023-05-21T08:47:36;6.60;;;1.33;;
34984;SDS011;21190;58.750;17.004;2023-05-21T08:50:07;2.63;;;1.40;;
34984;SDS011;21190;58.750;17.004;2023-05-21T08:52:39;12.88;;;1.92;;
34984;SDS011;21190;58.750;17.004;2023-05-21T08:55:07;2.78;;;1.65;;
34984;SDS011;21190;58.750;17.004;2023-05-21T08:57:35;2.58;;;1.30;;
34984;SDS011;21190;58.750;17.004;2023-05-21T09:00:03;3.47;;;1.20;;
34984;SDS011;21190;58.750;17.004;2023-05-21T09:02:32;2.13;;;1.10;;
34984;SDS011;21190;58.750;17.004;2023-05-21T09:05:00;3.75;;;1.40;;
34984;SDS011;21190;58.750;17.004;2023-05-21T09:07:29;2.17;;;1.20;;
34984;SDS011;21190;58.750;17.004;2023-05-21T09:10:03;10.07;;;1.75;;
34984;SDS011;21190;58.750;17.004;2023-05-21T09:12:36;2.10;;;1.20;;
34984;SDS011;21190;58.750;17.004;2023-05-21T09:15:04;4.90;;;1.38;;
34984;SDS011;21190;58.750;17.004;2023-05-21T09:17:31;1.92;;;1.20;;
34984;SDS011;21190;58.750;17.004;2023-05-21T09:20:05;1.25;;;1.00;;
34984;SDS011;21190;58.750;17.004;2023-05-21T09:22:44;4.05;;;1.40;;
34984;SDS011;21190;58.750;17.004;2023-05-21T09:25:15;3.47;;;1.42;;
34984;SDS011;21190;58.750;17.004;2023-05-21T09:27:50;4.95;;;1.33;;
34984;SDS011;21190;58.750;17.004;2023-05-21T09:30:18;4.43;;;1.23;;
34984;SDS011;21190;58.750;17.004;2023-05-21T09:32:57;10.13;;;1.42;;
34984;SDS011;21190;58.750;17.004;2023-05-21T09:35:25;2.38;;;1.30;;
34984;SDS011;21190;58.750;17.004;2023-05-21T09:37:52;6.38;;;1.38;;
34984;SDS011;21190;58.750;17.004;2023-05-21T09:40:22;7.38;;;1.50;;
34984;SDS011;21190;58.750;17.004;2023-05-21T09:42:51;2.85;;;1.27;;
34984;SDS011;21190;58.750;17.004;2023-05-21T09:45:23;2.08;;;1.00;;
34984;SDS011;21190;58.750;17.004;2023-05-21T09:47:53;6.80;;;1.35;;
34984;SDS011;21190;58.750;17.004;2023-05-21T09:50:21;2.28;;;1.30;;
34984;SDS011;21190;58.750;17.004;2023-05-21T09:52:50;2.75;;;1.10;;
34984;SDS011;21190;58.750;17.004;2023-05-21T09:55:21;1.95;;;1.15;;
34984;SDS011;21190;58.750;17.004;2023-05-21T09:57:48;6.90;;;1.30;;
34984;SDS011;21190;58.750;17.004;2023-05-21T10:00:17;5.43;;;1.10;;
34984;SDS011;21190;58.750;17.004;2023-05-21T10:02:47;3.60;;;1.83;;
34984;SDS011;21190;58.750;17.004;2023-05-21T10:05:16;3.10;;;1.25;;
34984;SDS011;21190;58.750;17.004;2023-05-21T10:07:49;2.05;;;1.15;;
34984;SDS011;21190;58.750;17.004;2023-05-21T10:10:19;1.75;;;1.10;;
34984;SDS011;21190;58.750;17.004;2023-05-21T10:12:52;5.57;;;1.23;;
34984;SDS011;21190;58.750;17.004;2023-05-21T10:15:23;5.03;;;1.70;;
34984;SDS011;21190;58.750;17.004;2023-05-21T10:17:53;2.75;;;1.50;;
34984;SDS011;21190;58.750;17.004;2023-05-21T10:20:21;4.97;;;1.42;;
34984;SDS011;21190;58.750;17.004;2023-05-21T10:22:49;4.75;;;1.42;;
34984;SDS011;21190;58.750;17.004;2023-05-21T10:25:17;3.65;;;1.30;;
34984;SDS011;21190;58.750;17.004;2023-05-21T10:27:45;4.07;;;1.10;;
34984;SDS011;21190;58.750;17.004;2023-05-21T10:30:13;2.45;;;1.17;;
34984;SDS011;21190;58.750;17.004;2023-05-21T10:32:41;3.22;;;1.60;;
34984;SDS011;21190;58.750;17.004;2023-05-21T10:35:08;3.70;;;1.17;;
34984;SDS011;21190;58.750;17.004;2023-05-21T10:37:36;3.60;;;2.03;;
34984;SDS011;21190;58.750;17.004;2023-05-21T10:40:04;2.83;;;1.38;;
34984;SDS011;21190;58.750;17.004;2023-05-21T10:45:05;3.35;;;1.48;;
34984;SDS011;21190;58.750;17.004;2023-05-21T11:01:56;2.72;;;1.30;;
34984;SDS011;21190;58.750;17.004;2023-05-21T11:04:26;3.28;;;1.30;;
34984;SDS011;21190;58.750;17.004;2023-05-21T11:06:54;2.35;;;1.30;;
34984;SDS011;21190;58.750;17.004;2023-05-21T11:09:23;5.50;;;2.10;;
34984;SDS011;21190;58.750;17.004;2023-05-21T11:11:52;2.85;;;1.40;;
34984;SDS011;21190;58.750;17.004;2023-05-21T11:19:40;4.75;;;1.40;;
34984;SDS011;21190;58.750;17.004;2023-05-21T11:22:23;2.63;;;1.58;;
34984;SDS011;21190;58.750;17.004;2023-05-21T11:24:53;2.30;;;1.20;;
34984;SDS011;21190;58.750;17.004;2023-05-21T11:27:37;5.45;;;1.70;;
34984;SDS011;21190;58.750;17.004;2023-05-21T11:30:07;3.53;;;1.65;;
34984;SDS011;21190;58.750;17.004;2023-05-21T11:33:27;4.20;;;1.60;;
34984;SDS011;21190;58.750;17.004;2023-05-21T11:38:16;5.85;;;1.45;;
34984;SDS011;21190;58.750;17.004;2023-05-21T11:40:50;5.57;;;1.73;;
34984;SDS011;21190;58.750;17.004;2023-05-21T11:43:21;4.15;;;1.20;;
34984;SDS011;21190;58.750;17.004;2023-05-21T11:45:48;2.92;;;1.17;;
34984;SDS011;21190;58.750;17.004;2023-05-21T11:48:19;1.98;;;1.30;;
34984;SDS011;21190;58.750;17.004;2023-05-21T11:50:52;8.85;;;1.80;;
34984;SDS011;21190;58.750;17.004;2023-05-21T11:53:19;3.72;;;1.67;;
34984;SDS011;21190;58.750;17.004;2023-05-21T11:55:47;2.30;;;1.50;;
34984;SDS011;21190;58.750;17.004;2023-05-21T11:58:17;3.97;;;1.80;;
34984;SDS011;21190;58.750;17.004;2023-05-21T12:00:45;5.63;;;1.70;;
34984;SDS011;21190;58.750;17.004;2023-05-21T12:03:15;3.05;;;1.92;;
34984;SDS011;21190;58.750;17.004;2023-05-21T12:05:46;13.75;;;1.90;;
34984;SDS011;21190;58.750;17.004;2023-05-21T12:08:23;4.10;;;2.03;;
34984;SDS011;21190;58.750;17.004;2023-05-21T12:10:57;4.30;;;1.42;;
34984;SDS011;21190;58.750;17.004;2023-05-21T12:13:26;3.95;;;1.60;;
34984;SDS011;21190;58.750;17.004;2023-05-21T12:15:54;8.70;;;1.90;;
34984;SDS011;21190;58.750;17.004;2023-05-21T12:18:21;3.47;;;1.75;;
34984;SDS011;21190;58.750;17.004;2023-05-21T12:20:50;5.78;;;1.60;;
34984;SDS011;21190;58.750;17.004;2023-05-21T12:23:23;5.32;;;2.05;;
34984;SDS011;21190;58.750;17.004;2023-05-21T12:25:51;2.33;;;1.80;;
34984;SDS011;21190;58.750;17.004;2023-05-21T12:28:19;3.63;;;1.83;;
34984;SDS011;21190;58.750;17.004;2023-05-21T12:30:47;3.97;;;1.70;;
34984;SDS011;21190;58.750;17.004;2023-05-21T12:33:14;6.93;;;1.98;;
34984;SDS011;21190;58.750;17.004;2023-05-21T12:35:47;4.72;;;1.55;;
34984;SDS011;21190;58.750;17.004;2023-05-21T12:38:15;5.65;;;1.75;;
34984;SDS011;21190;58.750;17.004;2023-05-21T12:40:42;4.63;;;1.80;;
34984;SDS011;21190;58.750;17.004;2023-05-21T12:43:11;6.25;;;1.85;;
34984;SDS011;21190;58.750;17.004;2023-05-21T12:45:38;3.28;;;1.85;;
34984;SDS011;21190;58.750;17.004;2023-05-21T12:48:06;4.50;;;1.80;;
34984;SDS011;21190;58.750;17.004;2023-05-21T12:50:38;4.05;;;2.00;;
34984;SDS011;21190;58.750;17.004;2023-05-21T12:53:07;4.65;;;1.65;;
34984;SDS011;21190;58.750;17.004;2023-05-21T12:55:35;4.70;;;1.77;;
34984;SDS011;21190;58.750;17.004;2023-05-21T12:58:05;5.10;;;1.83;;
34984;SDS011;21190;58.750;17.004;2023-05-21T13:00:34;6.32;;;1.40;;
34984;SDS011;21190;58.750;17.004;2023-05-21T13:03:02;3.58;;;1.75;;
34984;SDS011;21190;58.750;17.004;2023-05-21T13:05:32;3.53;;;1.90;;
34984;SDS011;21190;58.750;17.004;2023-05-21T13:07:59;3.10;;;1.65;;
34984;SDS011;21190;58.750;17.004;2023-05-21T13:10:26;2.88;;;1.48;;
34984;SDS011;21190;58.750;17.004;2023-05-21T13:13:02;5.15;;;1.63;;
34984;SDS011;21190;58.750;17.004;2023-05-21T13:15:29;4.18;;;1.58;;
34984;SDS011;21190;58.750;17.004;2023-05-21T13:17:56;4.72;;;1.80;;
34984;SDS011;21190;58.750;17.004;2023-05-21T13:20:23;2.95;;;1.80;;
34984;SDS011;21190;58.750;17.004;2023-05-21T13:22:52;2.40;;;1.60;;
34984;SDS011;21190;58.750;17.004;2023-05-21T13:25:20;4.18;;;1.58;;
34984;SDS011;21190;58.750;17.004;2023-05-21T13:27:50;2.63;;;1.38;;
34984;SDS011;21190;58.750;17.004;2023-05-21T13:30:18;2.25;;;1.77;;
34984;SDS011;21190;58.750;17.004;2023-05-21T13:32:47;1.50;;;1.40;;
34984;SDS011;21190;58.750;17.004;2023-05-21T13:35:14;3.75;;;1.70;;
34984;SDS011;21190;58.750;17.004;2023-05-21T13:37:42;2.92;;;1.60;;
34984;SDS011;21190;58.750;17.004;2023-05-21T13:40:11;8.80;;;2.28;;
34984;SDS011;21190;58.750;17.004;2023-05-21T13:42:41;5.55;;;1.52;;
34984;SDS011;21190;58.750;17.004;2023-05-21T13:45:13;2.60;;;1.65;;
34984;SDS011;21190;58.750;17.004;2023-05-21T13:47:42;7.75;;;1.50;;
34984;SDS011;21190;58.750;17.004;2023-05-21T13:50:09;5.00;;;1.83;;
34984;SDS011;21190;58.750;17.004;2023-05-21T13:52:37;5.50;;;1.90;;
34984;SDS011;21190;58.750;17.004;2023-05-21T13:55:04;6.97;;;2.28;;
34984;SDS011;21190;58.750;17.004;2023-05-21T13:57:32;4.25;;;1.75;;
34984;SDS011;21190;58.750;17.004;2023-05-21T13:59:59;3.58;;;1.42;;
34984;SDS011;21190;58.750;17.004;2023-05-21T14:02:27;4.35;;;1.50;;
34984;SDS011;21190;58.750;17.004;2023-05-21T14:04:55;7.10;;;2.10;;
34984;SDS011;21190;58.750;17.004;2023-05-21T14:07:22;3.75;;;1.60;;
34984;SDS011;21190;58.750;17.004;2023-05-21T14:09:49;2.45;;;1.58;;
34984;SDS011;21190;58.750;17.004;2023-05-21T14:12:16;6.78;;;2.00;;
34984;SDS011;21190;58.750;17.004;2023-05-21T14:14:44;2.78;;;1.67;;
34984;SDS011;21190;58.750;17.004;2023-05-21T14:17:11;3.03;;;1.67;;
34984;SDS011;21190;58.750;17.004;2023-05-21T14:19:38;5.32;;;1.67;;
34984;SDS011;21190;58.750;17.004;2023-05-21T14:22:05;3.17;;;1.70;;
34984;SDS011;21190;58.750;17.004;2023-05-21T14:24:33;4.32;;;1.63;;
34984;SDS011;21190;58.750;17.004;2023-05-21T14:27:00;5.60;;;2.45;;
34984;SDS011;21190;58.750;17.004;2023-05-21T14:29:27;6.65;;;1.98;;
34984;SDS011;21190;58.750;17.004;2023-05-21T14:31:54;5.65;;;2.22;;
34984;SDS011;21190;58.750;17.004;2023-05-21T14:34:21;6.13;;;1.65;;
34984;SDS011;21190;58.750;17.004;2023-05-21T14:36:48;5.15;;;1.55;;
34984;SDS011;21190;58.750;17.004;2023-05-21T14:39:15;4.45;;;1.90;;
34984;SDS011;21190;58.750;17.004;2023-05-21T14:41:43;5.20;;;1.83;;
34984;SDS011;21190;58.750;17.004;2023-05-21T14:44:10;5.93;;;1.85;;
34984;SDS011;21190;58.750;17.004;2023-05-21T14:46:37;4.40;;;2.15;;
34984;SDS011;21190;58.750;17.004;2023-05-21T14:49:05;5.68;;;2.20;;
34984;SDS011;21190;58.750;17.004;2023-05-21T14:51:32;8.05;;;1.88;;
34984;SDS011;21190;58.750;17.004;2023-05-21T14:53:59;3.30;;;1.52;;
34984;SDS011;21190;58.750;17.004;2023-05-21T14:56:26;3.30;;;1.80;;
34984;SDS011;21190;58.750;17.004;2023-05-21T14:58:54;3.33;;;1.52;;
34984;SDS011;21190;58.750;17.004;2023-05-21T15:01:21;4.63;;;1.63;;
34984;SDS011;21190;58.750;17.004;2023-05-21T15:03:49;5.10;;;1.92;;
34984;SDS011;21190;58.750;17.004;2023-05-21T15:06:16;5.30;;;1.63;;